createdAt,value
2023-05-11T00:01:43.834Z,6.20
2023-05-11T00:04:10.334Z,5.78
2023-05-11T00:06:36.929Z,6.03
2023-05-11T00:09:11.118Z,6.35
2023-05-11T00:11:37.970Z,6.18
2023-05-11T00:14:07.710Z,6.50
2023-05-11T00:16:34.491Z,6.20
2023-05-11T00:19:01.496Z,5.72
2023-05-11T00:21:30.581Z,6.00
2023-05-11T00:23:57.070Z,6.07
2023-05-11T00:26:24.032Z,5.78
2023-05-11T00:28:52.918Z,5.90
2023-05-11T00:31:19.481Z,5.57
2023-05-11T00:33:49.415Z,5.97
2023-05-11T00:36:15.937Z,5.80
2023-05-11T00:38:45.496Z,5.72
2023-05-11T00:41:18.631Z,6.40
2023-05-11T00:43:45.067Z,7.03
2023-05-11T00:46:12.173Z,6.93
2023-05-11T00:48:38.884Z,5.97
2023-05-11T00:51:06.909Z,6.43
2023-05-11T00:53:33.388Z,5.85
2023-05-11T00:56:00.390Z,6.10
2023-05-11T00:58:27.050Z,6.15
2023-05-11T01:00:53.530Z,6.40
2023-05-11T01:03:20.087Z,6.05
2023-05-11T01:05:53.120Z,6.20
2023-05-11T01:08:40.156Z,6.53
2023-05-11T01:11:19.329Z,7.00
2023-05-11T01:13:55.837Z,6.97
2023-05-11T01:16:26.211Z,6.78
2023-05-11T01:19:12.684Z,7.38
2023-05-11T01:21:40.501Z,6.72
2023-05-11T01:24:22.599Z,6.60
2023-05-11T01:27:19.643Z,6.35
2023-05-11T01:30:18.968Z,6.47
2023-05-11T01:32:46.482Z,6.20
2023-05-11T01:35:22.031Z,6.15
2023-05-11T01:37:53.020Z,5.90
2023-05-11T01:40:24.843Z,6.47
2023-05-11T01:43:02.189Z,6.32
2023-05-11T01:45:31.582Z,6.03
2023-05-11T01:48:02.247Z,6.05
2023-05-11T01:50:29.746Z,5.38
2023-05-11T01:52:56.677Z,5.35
2023-05-11T01:55:23.906Z,5.25
2023-05-11T01:57:53.407Z,5.47
2023-05-11T02:00:22.495Z,5.13
2023-05-11T02:02:49.766Z,4.90
2023-05-11T02:05:20.794Z,5.30
2023-05-11T02:07:50.931Z,5.22
2023-05-11T02:10:19.057Z,5.28
2023-05-11T02:12:47.768Z,4.90
2023-05-11T02:15:16.291Z,5.30
2023-05-11T02:17:43.661Z,5.28
2023-05-11T02:20:11.949Z,5.07
2023-05-11T02:22:39.572Z,4.85
2023-05-11T02:25:08.173Z,4.80
2023-05-11T02:27:35.964Z,4.63
2023-05-11T02:30:04.177Z,4.85
2023-05-11T02:32:33.166Z,4.97
2023-05-11T02:35:10.010Z,5.07
2023-05-11T02:37:43.248Z,4.55
2023-05-11T02:40:17.132Z,4.95
2023-05-11T02:42:46.893Z,4.45
2023-05-11T02:45:17.083Z,4.32
2023-05-11T02:47:47.475Z,4.32
2023-05-11T02:50:15.091Z,4.28
2023-05-11T02:52:45.775Z,4.60
2023-05-11T02:55:15.281Z,4.60
2023-05-11T02:57:42.624Z,4.40
2023-05-11T03:00:10.897Z,4.78
2023-05-11T03:02:37.677Z,5.53
2023-05-11T03:05:04.816Z,5.53
2023-05-11T03:07:33.070Z,6.22
2023-05-11T03:10:00.762Z,6.00
2023-05-11T03:12:31.516Z,6.07
2023-05-11T03:15:00.280Z,6.32
2023-05-11T03:17:30.514Z,7.30
2023-05-11T03:19:58.620Z,6.65
2023-05-11T03:22:26.556Z,7.13
2023-05-11T03:24:53.725Z,7.15
2023-05-11T03:27:20.694Z,7.25
2023-05-11T03:29:49.235Z,7.57
2023-05-11T03:32:15.823Z,6.85
2023-05-11T03:34:42.414Z,6.97
2023-05-11T03:37:12.532Z,7.22
2023-05-11T03:39:41.293Z,7.60
2023-05-11T03:42:08.609Z,7.97
2023-05-11T03:44:36.256Z,7.88
2023-05-11T03:47:03.987Z,7.40
2023-05-11T03:49:30.998Z,7.50
2023-05-11T03:51:57.795Z,7.28
2023-05-11T03:54:24.511Z,7.70
2023-05-11T03:56:52.106Z,8.43
2023-05-11T03:59:18.938Z,7.75
2023-05-11T04:01:45.997Z,7.70
2023-05-11T04:04:12.661Z,7.57
2023-05-11T04:06:39.158Z,7.50
2023-05-11T04:09:05.672Z,7.28
2023-05-11T04:11:37.014Z,7.25
2023-05-11T04:14:03.964Z,6.68
2023-05-11T04:16:30.568Z,7.25
2023-05-11T04:18:57.158Z,7.25
2023-05-11T04:21:23.713Z,7.40
2023-05-11T04:23:50.248Z,7.20
2023-05-11T04:26:16.690Z,7.53
2023-05-11T04:28:43.191Z,6.80
2023-05-11T04:31:10.496Z,4.90
2023-05-11T04:33:38.257Z,4.95
2023-05-11T04:36:05.234Z,5.50
2023-05-11T04:38:31.745Z,5.75
2023-05-11T04:40:58.195Z,5.43
2023-05-11T04:43:24.895Z,5.25
2023-05-11T04:45:51.545Z,5.50
2023-05-11T04:48:20.517Z,5.20
2023-05-11T04:50:47.628Z,5.47
2023-05-11T04:53:14.338Z,5.50
2023-05-11T04:55:40.824Z,5.22
2023-05-11T04:58:07.315Z,5.80
2023-05-11T05:00:33.866Z,6.28
2023-05-11T05:03:00.492Z,6.10
2023-05-11T05:05:30.260Z,6.10
2023-05-11T05:07:56.912Z,6.05
2023-05-11T05:10:23.352Z,6.20
2023-05-11T05:12:49.817Z,7.28
2023-05-11T05:15:20.568Z,6.95
2023-05-11T05:17:50.304Z,6.30
2023-05-11T05:20:24.164Z,7.38
2023-05-11T05:22:50.724Z,7.72
2023-05-11T05:25:17.266Z,7.40
2023-05-11T05:27:43.757Z,7.80
2023-05-11T05:30:10.607Z,7.63
2023-05-11T05:32:37.052Z,7.38
2023-05-11T05:35:04.071Z,7.35
2023-05-11T05:37:30.613Z,8.05
2023-05-11T05:39:58.300Z,7.72
2023-05-11T05:42:27.577Z,8.02
2023-05-11T05:44:54.111Z,7.28
2023-05-11T05:47:20.691Z,7.95
2023-05-11T05:49:47.261Z,7.82
2023-05-11T05:52:13.769Z,7.55
2023-05-11T05:54:40.344Z,8.23
2023-05-11T05:57:06.817Z,8.27
2023-05-11T05:59:33.332Z,8.52
2023-05-11T06:01:59.789Z,7.97
2023-05-11T06:04:26.332Z,8.38
2023-05-11T06:06:52.899Z,8.70
2023-05-11T06:09:19.400Z,8.38
2023-05-11T06:11:45.900Z,7.80
2023-05-11T06:14:12.407Z,7.80
2023-05-11T06:16:38.965Z,7.80
2023-05-11T06:19:08.985Z,7.97
2023-05-11T06:21:35.661Z,8.13
2023-05-11T06:24:02.383Z,8.88
2023-05-11T06:26:29.527Z,8.60
2023-05-11T06:28:56.030Z,8.75
2023-05-11T06:31:24.257Z,9.32
2023-05-11T06:33:50.875Z,8.48
2023-05-11T06:36:17.363Z,9.45
2023-05-11T06:38:43.824Z,9.93
2023-05-11T06:41:11.520Z,9.18
2023-05-11T06:43:38.506Z,8.70
2023-05-11T06:46:05.398Z,9.48
2023-05-11T06:48:31.958Z,9.75
2023-05-11T06:50:58.705Z,9.80
2023-05-11T06:53:25.247Z,9.98
2023-05-11T06:55:51.749Z,10.18
2023-05-11T06:58:20.647Z,9.90
2023-05-11T07:00:47.457Z,9.13
2023-05-11T07:03:17.029Z,9.88
2023-05-11T07:05:43.764Z,9.65
2023-05-11T07:08:10.241Z,10.73
2023-05-11T07:10:36.756Z,9.95
2023-05-11T07:13:05.226Z,10.02
2023-05-11T07:15:31.729Z,9.43
2023-05-11T07:17:58.390Z,10.18
2023-05-11T07:20:25.026Z,9.50
2023-05-11T07:22:51.605Z,9.88
2023-05-11T07:25:18.084Z,10.05
2023-05-11T07:27:44.557Z,10.10
2023-05-11T07:30:11.660Z,10.10
2023-05-11T07:32:38.730Z,9.85
2023-05-11T07:35:05.582Z,9.57
2023-05-11T07:37:33.560Z,7.75
2023-05-11T07:40:00.109Z,8.15
2023-05-11T07:42:27.442Z,6.88
2023-05-11T07:44:53.873Z,7.20
2023-05-11T07:47:21.014Z,6.60
2023-05-11T07:49:47.735Z,6.93
2023-05-11T07:52:14.731Z,6.50
2023-05-11T07:54:41.310Z,6.63
2023-05-11T07:57:08.464Z,7.90
2023-05-11T07:59:35.312Z,7.78
2023-05-11T08:02:01.876Z,9.05
2023-05-11T08:04:28.349Z,8.02
2023-05-11T08:06:54.841Z,7.72
2023-05-11T08:09:22.395Z,8.55
2023-05-11T08:11:49.740Z,7.20
2023-05-11T08:14:17.141Z,6.95
2023-05-11T08:16:43.794Z,5.65
2023-05-11T08:19:11.657Z,4.47
2023-05-11T08:21:38.555Z,4.47
2023-05-11T08:24:05.368Z,4.72
2023-05-11T08:26:33.550Z,4.30
2023-05-11T08:29:00.310Z,3.72
2023-05-11T08:31:26.908Z,3.70
2023-05-11T08:33:53.522Z,3.67
2023-05-11T08:36:20.362Z,3.47
2023-05-11T08:38:46.856Z,3.28
2023-05-11T08:41:13.523Z,3.22
2023-05-11T08:43:40.993Z,2.60
2023-05-11T08:46:09.147Z,2.58
2023-05-11T08:48:36.319Z,2.80
2023-05-11T08:51:06.224Z,2.30
2023-05-11T08:53:33.265Z,2.50
2023-05-11T08:56:01.316Z,3.03
2023-05-11T08:58:29.540Z,3.95
2023-05-11T09:00:57.657Z,3.97
2023-05-11T09:03:25.122Z,5.03
2023-05-11T09:05:52.997Z,5.25
2023-05-11T09:08:20.531Z,5.38
2023-05-11T09:10:48.942Z,4.85
2023-05-11T09:13:16.026Z,4.93
2023-05-11T09:15:42.624Z,4.68
2023-05-11T09:18:09.223Z,4.28
2023-05-11T09:20:35.775Z,4.60
2023-05-11T09:23:02.559Z,5.45
2023-05-11T09:25:35.730Z,5.63
2023-05-11T09:28:02.308Z,5.70
2023-05-11T09:30:28.852Z,6.60
2023-05-11T09:33:00.235Z,4.28
2023-05-11T09:35:28.730Z,4.43
2023-05-11T09:38:06.542Z,4.40
2023-05-11T09:40:43.510Z,4.72
2023-05-11T09:43:17.211Z,5.10
2023-05-11T09:45:46.351Z,3.80
2023-05-11T09:48:19.142Z,3.95
2023-05-11T09:50:51.079Z,3.33
2023-05-11T09:55:55.600Z,3.47
2023-05-11T09:58:22.180Z,3.03
2023-05-11T10:00:51.228Z,2.40
2023-05-11T10:03:18.091Z,2.30
2023-05-11T10:05:58.213Z,2.20
2023-05-11T10:08:34.192Z,1.70
2023-05-11T10:11:02.656Z,2.00
2023-05-11T10:13:30.760Z,2.20
2023-05-11T10:15:59.174Z,2.22
2023-05-11T10:18:26.502Z,1.95
2023-05-11T10:20:57.893Z,2.42
2023-05-11T10:23:25.730Z,2.40
2023-05-11T10:25:53.624Z,2.33
2023-05-11T10:28:23.072Z,2.28
2023-05-11T10:30:49.791Z,3.30
2023-05-11T10:33:17.155Z,3.80
2023-05-11T10:35:45.682Z,4.30
2023-05-11T10:38:13.454Z,4.50
2023-05-11T10:40:43.479Z,4.47
2023-05-11T10:43:44.220Z,7.32
2023-05-11T10:46:18.094Z,5.40
2023-05-11T10:48:59.578Z,6.30
2023-05-11T10:51:44.341Z,7.25
2023-05-11T10:54:20.174Z,6.90
2023-05-11T10:57:03.761Z,7.38
2023-05-11T10:59:43.646Z,7.47
2023-05-11T11:02:10.843Z,8.27
2023-05-11T11:04:51.655Z,9.15
2023-05-11T11:07:19.653Z,9.20
2023-05-11T11:09:57.708Z,9.18
2023-05-11T11:12:27.364Z,8.40
2023-05-11T11:15:06.204Z,9.00
2023-05-11T11:17:35.500Z,10.02
2023-05-11T11:20:04.490Z,10.98
2023-05-11T11:22:38.491Z,11.32
2023-05-11T11:25:06.686Z,10.13
2023-05-11T11:27:45.407Z,11.43
2023-05-11T11:30:15.604Z,11.45
2023-05-11T11:32:44.006Z,11.68
2023-05-11T11:35:40.112Z,13.63
2023-05-11T11:38:07.513Z,13.73
2023-05-11T11:40:49.448Z,14.85
2023-05-11T11:43:19.166Z,15.90
2023-05-11T11:45:59.600Z,15.40
2023-05-11T11:48:31.386Z,14.18
2023-05-11T11:51:02.431Z,14.93
2023-05-11T11:53:37.983Z,15.07
2023-05-11T11:56:06.081Z,15.07
2023-05-11T11:58:41.839Z,15.15
2023-05-11T12:01:10.090Z,16.10
2023-05-11T12:03:37.282Z,15.85
2023-05-11T12:06:06.285Z,15.27
2023-05-11T12:08:32.771Z,16.23
2023-05-11T12:11:00.332Z,16.58
2023-05-11T12:13:27.515Z,17.08
2023-05-11T12:16:16.988Z,17.83
2023-05-11T12:18:53.557Z,16.77
2023-05-11T12:21:21.271Z,18.77
2023-05-11T12:24:02.490Z,17.75
2023-05-11T12:26:30.751Z,19.77
2023-05-11T12:29:12.726Z,18.90
2023-05-11T12:34:17.992Z,20.27
2023-05-11T12:36:52.115Z,21.35
2023-05-11T12:39:28.143Z,22.63
2023-05-11T12:41:56.518Z,21.85
2023-05-11T12:44:26.520Z,22.60
2023-05-11T12:46:53.918Z,22.23
2023-05-11T12:49:26.333Z,22.67
2023-05-11T12:51:59.362Z,23.17
2023-05-11T12:54:31.793Z,23.60
2023-05-11T12:56:59.008Z,23.85
2023-05-11T12:59:40.454Z,23.90
2023-05-11T13:02:14.869Z,23.38
2023-05-11T13:04:42.726Z,23.13
2023-05-11T13:07:10.038Z,22.02
2023-05-11T13:09:37.297Z,25.25
2023-05-11T13:12:17.973Z,25.52
2023-05-11T13:14:49.567Z,24.20
2023-05-11T13:17:33.778Z,24.70
2023-05-11T13:20:27.171Z,23.40
2023-05-11T13:23:05.619Z,24.77
2023-05-11T13:25:33.045Z,23.58
2023-05-11T13:27:59.547Z,23.70
2023-05-11T13:30:26.111Z,25.25
2023-05-11T13:32:52.720Z,26.15
2023-05-11T13:35:19.468Z,25.02
2023-05-11T13:37:46.982Z,25.40
2023-05-11T13:40:13.961Z,25.92
2023-05-11T13:42:41.591Z,26.33
2023-05-11T13:45:08.600Z,26.35
2023-05-11T13:47:35.946Z,26.88
2023-05-11T13:50:02.789Z,26.60
2023-05-11T13:52:29.327Z,26.55
2023-05-11T13:54:56.825Z,26.52
2023-05-11T13:57:23.588Z,25.92
2023-05-11T13:59:50.560Z,26.85
2023-05-11T14:02:17.062Z,26.15
2023-05-11T14:04:43.714Z,26.30
2023-05-11T14:07:10.235Z,27.35
2023-05-11T14:09:37.146Z,27.20
2023-05-11T14:12:04.016Z,25.77
2023-05-11T14:14:30.554Z,26.92
2023-05-11T14:17:00.332Z,26.55
2023-05-11T14:19:27.275Z,24.67
2023-05-11T14:21:53.865Z,26.60
2023-05-11T14:24:20.662Z,24.83
2023-05-11T14:26:47.328Z,25.38
2023-05-11T14:29:13.793Z,27.25
2023-05-11T14:31:41.161Z,26.77
2023-05-11T14:34:07.865Z,26.63
2023-05-11T14:36:34.432Z,27.15
2023-05-11T14:39:00.976Z,27.98
2023-05-11T14:41:27.485Z,28.55
2023-05-11T14:43:53.950Z,26.88
2023-05-11T14:46:21.611Z,26.42
2023-05-11T14:48:48.395Z,28.75
2023-05-11T14:51:14.957Z,27.17
2023-05-11T14:53:41.418Z,29.05
2023-05-11T14:56:07.910Z,27.80
2023-05-11T14:58:35.008Z,29.42
2023-05-11T15:01:01.529Z,28.17
2023-05-11T15:03:28.143Z,27.50
2023-05-11T15:05:54.670Z,28.92
2023-05-11T15:08:29.517Z,28.35
2023-05-11T15:10:59.138Z,27.45
2023-05-11T15:13:25.623Z,26.08
2023-05-11T15:15:52.185Z,25.95
2023-05-11T15:18:19.030Z,24.70
2023-05-11T15:20:46.239Z,26.50
2023-05-11T15:23:16.957Z,26.58
2023-05-11T15:25:44.706Z,26.20
2023-05-11T15:28:11.584Z,29.20
2023-05-11T15:30:38.420Z,10.60
2023-05-11T15:33:04.974Z,4.80
2023-05-11T15:35:31.729Z,3.63
2023-05-11T15:37:58.195Z,4.68
2023-05-11T15:40:24.765Z,4.65
2023-05-11T15:42:51.261Z,5.00
2023-05-11T15:45:18.291Z,4.80
2023-05-11T15:47:45.007Z,5.00
2023-05-11T15:50:11.552Z,5.10
2023-05-11T15:52:38.121Z,5.47
2023-05-11T15:55:05.171Z,5.70
2023-05-11T15:57:32.081Z,5.95
2023-05-11T15:59:58.594Z,5.40
2023-05-11T16:02:25.441Z,6.30
2023-05-11T16:04:52.095Z,6.15
2023-05-11T16:07:18.694Z,6.80
2023-05-11T16:09:45.207Z,7.00
2023-05-11T16:12:11.672Z,6.90
2023-05-11T16:14:38.212Z,6.28
2023-05-11T16:17:07.061Z,6.15
2023-05-11T16:19:36.746Z,5.93
2023-05-11T16:22:03.447Z,5.95
2023-05-11T16:24:32.866Z,6.10
2023-05-11T16:27:00.684Z,6.18
2023-05-11T16:29:30.064Z,6.10
2023-05-11T16:31:56.965Z,5.90
2023-05-11T16:34:27.487Z,6.65
2023-05-11T16:36:53.981Z,6.40
2023-05-11T16:39:20.462Z,6.35
2023-05-11T16:41:46.909Z,6.18
2023-05-11T16:44:13.371Z,6.15
2023-05-11T16:46:39.942Z,5.80
2023-05-11T16:49:06.486Z,6.03
2023-05-11T16:51:34.098Z,5.65
2023-05-11T16:54:00.608Z,5.90
2023-05-11T16:56:27.132Z,6.40
2023-05-11T16:58:54.070Z,6.55
2023-05-11T17:01:20.752Z,6.72
2023-05-11T17:03:47.776Z,7.18
2023-05-11T17:06:18.494Z,6.97
2023-05-11T17:08:46.831Z,7.97
2023-05-11T17:11:13.354Z,7.05
2023-05-11T17:13:39.921Z,7.07
2023-05-11T17:16:06.595Z,7.07
2023-05-11T17:18:33.215Z,7.68
2023-05-11T17:21:03.074Z,8.07
2023-05-11T17:23:29.594Z,8.38
2023-05-11T17:25:56.090Z,8.07
2023-05-11T17:28:22.570Z,8.20
2023-05-11T17:30:52.795Z,7.25
2023-05-11T17:33:19.652Z,6.70
2023-05-11T17:35:46.253Z,7.57
2023-05-11T17:38:12.739Z,7.53
2023-05-11T17:40:39.234Z,7.15
2023-05-11T17:43:05.775Z,7.95
2023-05-11T17:45:32.357Z,7.72
2023-05-11T17:47:58.894Z,7.32
2023-05-11T17:50:25.471Z,7.68
2023-05-11T17:52:51.927Z,7.75
2023-05-11T17:55:19.262Z,8.20
2023-05-11T17:57:46.836Z,8.13
2023-05-11T18:00:13.835Z,7.88
2023-05-11T18:02:40.587Z,7.97
2023-05-11T18:05:07.507Z,7.32
2023-05-11T18:07:34.191Z,7.80
2023-05-11T18:10:00.727Z,8.73
2023-05-11T18:12:27.609Z,8.35
2023-05-11T18:14:54.102Z,7.15
2023-05-11T18:17:20.902Z,7.72
2023-05-11T18:19:47.437Z,7.93
2023-05-11T18:22:13.912Z,7.95
2023-05-11T18:24:40.440Z,7.78
2023-05-11T18:27:06.930Z,8.38
2023-05-11T18:29:33.482Z,9.80
2023-05-11T18:32:00.142Z,11.23
2023-05-11T18:34:27.486Z,11.00
2023-05-11T18:36:54.033Z,10.13
2023-05-11T18:39:20.484Z,9.40
2023-05-11T18:41:47.955Z,10.40
2023-05-11T18:44:15.196Z,9.90
2023-05-11T18:46:42.020Z,11.48
2023-05-11T18:49:10.804Z,11.05
2023-05-11T18:51:37.422Z,11.38
2023-05-11T18:54:04.059Z,12.30
2023-05-11T18:56:30.669Z,11.25
2023-05-11T18:58:59.053Z,11.63
2023-05-11T19:01:36.250Z,9.40
2023-05-11T19:04:12.568Z,9.70
2023-05-11T19:06:51.850Z,9.65
2023-05-11T19:09:18.445Z,9.60
2023-05-11T19:11:45.009Z,10.32
2023-05-11T19:14:15.960Z,10.63
2023-05-11T19:16:42.543Z,10.60
2023-05-11T19:19:09.308Z,9.48
2023-05-11T19:21:39.946Z,10.43
2023-05-11T19:24:07.326Z,10.57
2023-05-11T19:26:33.928Z,10.45
2023-05-11T19:29:00.625Z,9.90
2023-05-11T19:31:31.289Z,10.48
2023-05-11T19:33:58.937Z,10.57
2023-05-11T19:36:25.812Z,11.73
2023-05-11T19:38:52.492Z,11.75
2023-05-11T19:41:19.155Z,12.02
2023-05-11T19:43:45.619Z,11.55
2023-05-11T19:46:12.458Z,11.07
2023-05-11T19:48:40.036Z,11.00
2023-05-11T19:51:06.551Z,10.40
2023-05-11T19:53:33.085Z,10.30
2023-05-11T19:56:00.598Z,10.52
2023-05-11T19:58:27.217Z,11.60
2023-05-11T20:00:53.700Z,10.35
2023-05-11T20:03:20.410Z,11.35
2023-05-11T20:05:47.051Z,11.18
2023-05-11T20:08:13.540Z,11.45
2023-05-11T20:10:40.099Z,10.63
2023-05-11T20:13:08.146Z,10.40
2023-05-11T20:15:34.717Z,10.80
2023-05-11T20:18:03.052Z,11.10
2023-05-11T20:20:30.641Z,9.70
2023-05-11T20:22:57.691Z,10.48
2023-05-11T20:25:24.232Z,9.45
2023-05-11T20:27:51.204Z,10.30
2023-05-11T20:30:18.087Z,10.85
2023-05-11T20:35:14.423Z,11.23
2023-05-11T20:37:41.014Z,10.50
2023-05-11T20:40:08.341Z,11.35
2023-05-11T20:42:38.005Z,10.77
2023-05-11T20:45:07.344Z,11.32
2023-05-11T20:47:37.086Z,11.95
2023-05-11T20:50:04.028Z,12.15
2023-05-11T20:52:30.834Z,11.25
2023-05-11T20:54:57.408Z,11.80
2023-05-11T20:57:23.987Z,13.00
2023-05-11T21:02:19.994Z,12.75
2023-05-11T21:04:46.812Z,12.52
2023-05-11T21:07:13.336Z,12.77
2023-05-11T21:09:39.845Z,12.30
2023-05-11T21:12:06.698Z,12.10
2023-05-11T21:14:33.289Z,11.52
2023-05-11T21:16:59.850Z,12.85
2023-05-11T21:19:26.354Z,11.82
2023-05-11T21:21:52.818Z,11.95
2023-05-11T21:24:20.227Z,12.10
2023-05-11T21:26:48.213Z,12.45
2023-05-11T21:29:15.294Z,12.52
2023-05-11T21:31:42.011Z,13.70
2023-05-11T21:34:08.577Z,12.32
2023-05-11T21:36:35.064Z,13.27
2023-05-11T21:39:01.597Z,12.07
2023-05-11T21:41:28.110Z,12.02
2023-05-11T21:43:54.593Z,11.57
2023-05-11T21:46:21.790Z,10.63
2023-05-11T21:48:48.347Z,11.00
2023-05-11T21:51:14.821Z,10.63
2023-05-11T21:53:41.369Z,9.57
2023-05-11T21:56:09.825Z,9.90
2023-05-11T21:58:37.822Z,9.05
2023-05-11T22:01:04.441Z,8.48
2023-05-11T22:03:31.678Z,8.60
2023-05-11T22:05:58.730Z,7.63
2023-05-11T22:08:25.431Z,7.55
2023-05-11T22:10:52.058Z,6.20
2023-05-11T22:13:18.524Z,5.97
2023-05-11T22:15:45.010Z,6.13
2023-05-11T22:18:11.487Z,5.40
2023-05-11T22:20:37.993Z,5.40
2023-05-11T22:23:04.484Z,5.53
2023-05-11T22:25:32.142Z,5.50
2023-05-11T22:27:58.613Z,5.20
2023-05-11T22:30:25.115Z,5.30
2023-05-11T22:32:51.712Z,5.22
2023-05-11T22:35:18.368Z,5.30
2023-05-11T22:37:44.868Z,5.47
2023-05-11T22:40:12.017Z,5.50
2023-05-11T22:42:38.506Z,5.43
2023-05-11T22:45:06.094Z,5.75
2023-05-11T22:47:32.880Z,5.85
2023-05-11T22:50:00.520Z,5.32
2023-05-11T22:52:27.193Z,4.97
2023-05-11T22:55:01.742Z,5.57
2023-05-11T22:57:28.713Z,4.90
2023-05-11T22:59:55.386Z,4.50
2023-05-11T23:02:22.936Z,4.63
2023-05-11T23:04:53.147Z,4.75
2023-05-11T23:07:19.959Z,4.60
2023-05-11T23:09:46.843Z,4.95
2023-05-11T23:12:13.590Z,5.05
2023-05-11T23:14:40.132Z,5.03
2023-05-11T23:17:06.726Z,4.95
2023-05-11T23:19:33.282Z,4.57
2023-05-11T23:21:59.932Z,5.00
2023-05-11T23:24:26.781Z,4.97
2023-05-11T23:26:53.326Z,4.72
2023-05-11T23:29:19.993Z,4.75
2023-05-11T23:31:46.720Z,4.88
2023-05-11T23:34:16.156Z,4.90
2023-05-11T23:36:43.011Z,4.75
2023-05-11T23:39:09.650Z,4.63
2023-05-11T23:41:36.402Z,4.50
2023-05-11T23:44:03.242Z,4.10
2023-05-11T23:46:29.987Z,4.57
2023-05-11T23:48:56.512Z,4.35
2023-05-11T23:51:23.231Z,4.55
2023-05-11T23:53:49.717Z,4.53
2023-05-11T23:56:16.435Z,4.35
2023-05-11T23:58:45.579Z,3.97
